South Indian Lake, Canada
Current Conditions -  °F | °C
As of 6:00 PM on Monday 20 Oct 2014 (Local Time) from CYTH Reporting Station
Overcast Overcast  
Wind Chill: 26°   Ceiling: 600
Heat Index: 36°   Visibility: 12mi
Dew Point: 36°   Wind: 15mph
Humidity: 100%   Direction: 140°SE
Pressure: 29.99"   Gusts: NA
Location:  56.78°N, 98.93°W
Report Text: CYTH 202300Z 14013KT 12SM BKN006 OVC011 02/02 A2999 RMK ST6SC2CIG RAG SLP171
Loading
Personal Weather Stations






























Interactive Weather Map
Tropical Storm Tracking
New forecast layout! Learn more

10-Day Weather Forecast

Advertisements
Track Severe Weather on mobile